Time;durP1;ratioP1;P1;durP2;ratioP2;P2;SDS_P1;SDS_P2;PMS_P1;PMS_P2;Temp;Humidity;BMP_temperature;BMP_pressure;BME280_temperature;BME280_humidity;BME280_pressure;Samples;Min_cycle;Max_cycle;Signal;HPM_P1;HPM_P2
2022/01/15 00:00:39;;;;;;;102.43;28.20;;;6.20;99.90;;;;;;5081493;28;20063;-85
2022/01/15 00:03:07;;;;;;;91.18;26.30;;;6.20;99.90;;;;;;5081042;28;20022;-86
2022/01/15 00:05:34;;;;;;;123.15;29.20;;;6.20;99.90;;;;;;5079145;28;20550;-88
2022/01/15 00:08:02;;;;;;;114.65;27.27;;;6.20;99.90;;;;;;5085657;28;20059;-86
2022/01/15 00:10:29;;;;;;;103.45;26.80;;;6.10;99.90;;;;;;5070907;28;20104;-85
2022/01/15 00:12:59;;;;;;;108.25;26.85;;;6.10;99.90;;;;;;5073372;28;20401;-83
2022/01/15 00:15:35;;;;;;;108.57;25.67;;;6.00;99.90;;;;;;5076838;28;20024;-85
2022/01/15 00:18:06;;;;;;;100.53;26.05;;;6.00;99.90;;;;;;5078184;28;20024;-87
2022/01/15 00:20:32;;;;;;;109.10;26.25;;;6.00;99.90;;;;;;5074482;28;20028;-85
2022/01/15 00:22:59;;;;;;;101.10;25.77;;;6.00;99.90;;;;;;5085927;28;20035;-84
2022/01/15 00:25:29;;;;;;;106.10;25.52;;;6.00;99.90;;;;;;5081655;28;20025;-84
2022/01/15 00:27:55;;;;;;;100.53;25.88;;;6.00;99.90;;;;;;5073722;28;20032;-84
2022/01/15 00:30:21;;;;;;;88.70;24.42;;;6.00;99.90;;;;;;5053675;28;20039;-84
2022/01/15 00:32:49;;;;;;;105.07;24.58;;;6.00;99.90;;;;;;5056185;28;20437;-86
2022/01/15 00:35:21;;;;;;;103.88;25.05;;;6.00;99.90;;;;;;5076754;28;20478;-86
2022/01/15 00:41:50;;;;;;;102.55;24.00;;;6.00;99.90;;;;;;5076762;28;20036;-86
2022/01/15 00:55:28;;;;;;;109.07;25.20;;;5.80;99.90;;;;;;5077119;28;20029;-86
2022/01/15 01:05:21;;;;;;;82.57;21.75;;;5.70;99.90;;;;;;5077117;28;20031;-86
2022/01/15 01:28:33;;;;;;;72.63;17.52;;;5.60;99.90;;;;;;4982841;28;20042;-85
2022/01/15 01:34:21;;;;;;;;;;;5.60;99.90;;;;;;5015872;28;20587;-86
2022/01/15 01:39:38;;;;;;;82.03;19.25;;;5.60;99.90;;;;;;5075255;28;20029;-85
2022/01/15 01:45:07;;;;;;;78.80;20.17;;;5.60;99.90;;;;;;5073805;28;20415;-86
2022/01/15 01:47:47;;;;;;;85.45;18.88;;;5.60;99.90;;;;;;5077112;28;20100;-85
2022/01/15 01:53:47;;;;;;;;;;;5.60;99.90;;;;;;5033594;28;20035;-85
2022/01/15 01:59:37;;;;;;;76.53;17.92;;;5.50;99.90;;;;;;5077126;28;20077;-85
2022/01/15 02:02:03;;;;;;;59.83;16.65;;;5.50;99.90;;;;;;5043135;28;20057;-86
2022/01/15 02:04:32;;;;;;;58.10;15.65;;;5.50;99.90;;;;;;5060257;28;20025;-86
2022/01/15 02:06:58;;;;;;;57.65;15.85;;;5.50;99.90;;;;;;5066960;28;20039;-86
2022/01/15 02:09:25;;;;;;;62.30;15.35;;;5.50;99.90;;;;;;5093357;28;20032;-85
2022/01/15 02:11:50;;;;;;;65.22;15.75;;;5.50;99.90;;;;;;5093334;28;20035;-87
2022/01/15 02:14:38;;;;;;;61.08;16.15;;;5.40;99.90;;;;;;5075092;28;20056;-85
2022/01/15 02:17:06;;;;;;;63.97;17.00;;;5.40;99.90;;;;;;5077962;28;20025;-86
2022/01/15 02:19:57;;;;;;;64.13;17.05;;;5.40;99.90;;;;;;5092015;28;20095;-86
2022/01/15 02:25:58;;;;;;;70.75;18.23;;;5.30;99.90;;;;;;5032300;28;20129;-87
2022/01/15 02:28:36;;;;;;;61.83;17.75;;;5.30;99.90;;;;;;5085561;28;20044;-87
2022/01/15 02:31:05;;;;;;;81.03;19.25;;;5.30;99.90;;;;;;5079236;28;20031;-86
2022/01/15 02:33:31;;;;;;;61.70;18.42;;;5.30;99.90;;;;;;5075409;28;20025;-86
2022/01/15 02:35:58;;;;;;;61.53;18.02;;;5.30;99.90;;;;;;5058365;28;20032;-86
2022/01/15 02:38:24;;;;;;;64.40;17.48;;;5.30;99.90;;;;;;5058621;28;20086;-86
2022/01/15 02:40:50;;;;;;;73.40;19.10;;;5.30;99.90;;;;;;5074423;28;20037;-85
2022/01/15 02:43:19;;;;;;;60.10;17.10;;;5.30;99.90;;;;;;5074119;28;20025;-85
2022/01/15 02:46:00;;;;;;;71.75;18.63;;;5.30;99.90;;;;;;5074005;28;20107;-85
2022/01/15 02:48:29;;;;;;;60.30;15.95;;;5.30;99.90;;;;;;5075529;28;20027;-86
2022/01/15 02:51:00;;;;;;;56.08;15.77;;;5.40;99.90;;;;;;5077917;28;20071;-86
2022/01/15 02:53:28;;;;;;;;;;;5.30;99.90;;;;;;5064449;28;20070;-85
2022/01/15 02:59:20;;;;;;;58.50;16.25;;;5.30;99.90;;;;;;5073712;28;20040;-85
2022/01/15 03:01:48;;;;;;;51.70;16.00;;;5.30;99.90;;;;;;5055426;28;20119;-85
2022/01/15 03:04:20;;;;;;;58.58;16.65;;;5.30;99.90;;;;;;5071947;28;20047;-86
2022/01/15 03:06:47;;;;;;;55.65;17.17;;;5.30;99.90;;;;;;5072965;28;20031;-86
2022/01/15 03:09:15;;;;;;;62.97;16.77;;;5.40;99.90;;;;;;5056699;28;20037;-85
2022/01/15 03:11:42;;;;;;;53.40;15.95;;;5.30;99.90;;;;;;5056314;28;20032;-87
2022/01/15 03:14:18;;;;;;;63.00;17.27;;;5.30;99.90;;;;;;5054377;28;20033;-86
2022/01/15 03:21:20;;;;;;;58.10;15.30;;;5.30;99.90;;;;;;5013216;28;20052;-86
2022/01/15 03:27:09;;;;;;;54.08;14.63;;;5.30;99.90;;;;;;5032843;28;20028;-85
2022/01/15 03:29:34;;;;;;;56.78;16.05;;;5.20;99.90;;;;;;5032295;28;20030;-85
2022/01/15 03:32:05;;;;;;;61.33;16.00;;;5.30;99.90;;;;;;5015927;28;20064;-85
2022/01/15 03:34:31;;;;;;;54.88;15.50;;;5.30;99.90;;;;;;5035996;28;20087;-87
2022/01/15 03:37:02;;;;;;;50.83;14.50;;;5.30;99.90;;;;;;5019051;28;20037;-87
2022/01/15 03:39:33;;;;;;;49.55;14.13;;;5.30;99.90;;;;;;5053025;28;20136;-85
2022/01/15 03:45:08;;;;;;;39.92;12.57;;;5.20;99.90;;;;;;4992779;28;20061;-85
2022/01/15 03:51:00;;;;;;;28.20;10.65;;;5.10;99.90;;;;;;5074156;28;20493;-86
2022/01/15 03:56:52;;;;;;;29.02;11.77;;;5.10;99.90;;;;;;5076903;28;20130;-85
2022/01/15 03:59:19;;;;;;;33.35;12.45;;;5.10;99.90;;;;;;5058966;28;20036;-86
2022/01/15 04:01:45;;;;;;;35.42;14.82;;;5.10;99.90;;;;;;5046010;28;20052;-86
2022/01/15 04:10:49;;;;;;;39.63;15.20;;;5.10;99.90;;;;;;5077538;28;20028;-86
2022/01/15 04:16:52;;;;;;;47.22;16.75;;;5.00;99.90;;;;;;5016409;28;20100;-86
2022/01/15 04:19:18;;;;;;;58.97;18.58;;;5.00;99.90;;;;;;4998904;28;20038;-85
2022/01/15 04:21:53;;;;;;;58.00;18.30;;;5.10;99.90;;;;;;5048721;28;20089;-85
2022/01/15 04:24:20;;;;;;;54.83;18.40;;;5.10;99.90;;;;;;5076555;28;20036;-85
2022/01/15 04:36:35;;;;;;;40.72;16.13;;;5.00;99.90;;;;;;5077666;28;20027;-86
2022/01/15 04:42:25;;;;;;;45.38;16.80;;;5.00;99.90;;;;;;5077294;28;20402;-87
2022/01/15 04:51:41;;;;;;;49.90;17.52;;;5.00;99.90;;;;;;5076459;28;20039;-86
2022/01/15 04:58:09;;;;;;;51.50;16.77;;;5.00;99.90;;;;;;5077047;28;20030;-86
2022/01/15 05:04:07;;;;;;;55.15;17.75;;;5.00;99.90;;;;;;5075172;28;20071;-86
2022/01/15 05:06:33;;;;;;;56.40;20.05;;;5.00;99.90;;;;;;5026712;28;20434;-86
2022/01/15 05:09:05;;;;;;;51.60;18.92;;;5.10;99.90;;;;;;5075158;28;20024;-86
2022/01/15 05:18:14;;;;;;;47.67;17.85;;;5.10;99.90;;;;;;5075635;28;20024;-86
2022/01/15 05:24:14;;;;;;;48.60;18.38;;;5.00;99.90;;;;;;5076178;28;20020;-86
2022/01/15 05:30:26;;;;;;;60.80;20.88;;;5.00;99.90;;;;;;5076337;28;20063;-86
2022/01/15 05:36:16;;;;;;;59.88;21.42;;;5.00;99.90;;;;;;5076527;28;20091;-87
2022/01/15 05:42:52;;;;;;;59.80;21.85;;;5.00;99.90;;;;;;5076823;28;20075;-86
2022/01/15 05:49:05;;;;;;;58.05;20.35;;;5.00;99.90;;;;;;5076218;28;20108;-86
2022/01/15 05:55:03;;;;;;;67.68;21.90;;;5.10;99.90;;;;;;5078156;28;20031;-87
2022/01/15 06:01:13;;;;;;;62.58;20.95;;;5.10;99.90;;;;;;5076552;28;20050;-86
2022/01/15 06:11:54;;;;;;;73.93;22.90;;;5.10;99.90;;;;;;5080590;28;20039;-86
2022/01/15 06:18:24;;;;;;;83.07;23.02;;;5.10;99.90;;;;;;5077449;28;20485;-86
2022/01/15 06:24:21;;;;;;;82.22;22.27;;;5.10;99.90;;;;;;5077974;28;20069;-85
2022/01/15 06:30:15;;;;;;;92.10;23.83;;;5.10;99.90;;;;;;5074924;28;20390;-86
2022/01/15 06:36:41;;;;;;;131.20;29.33;;;5.10;99.90;;;;;;5075095;28;20020;-86
2022/01/15 06:39:07;;;;;;;134.68;28.60;;;5.10;99.90;;;;;;5040315;28;20067;-86
2022/01/15 06:41:33;;;;;;;130.18;27.98;;;5.10;99.90;;;;;;5040540;28;20056;-86
2022/01/15 06:44:01;;;;;;;143.93;28.33;;;5.10;99.90;;;;;;5040656;28;20031;-86
2022/01/15 06:46:27;;;;;;;208.18;30.63;;;5.00;99.90;;;;;;5041460;28;20031;-86
2022/01/15 06:48:53;;;;;;;124.85;27.40;;;5.10;99.90;;;;;;5040990;28;20028;-86
2022/01/15 06:51:25;;;;;;;140.68;27.92;;;5.10;99.90;;;;;;5040393;28;20028;-85
2022/01/15 06:53:53;;;;;;;111.07;27.05;;;5.00;99.90;;;;;;5074603;28;20028;-86
2022/01/15 06:59:44;;;;;;;128.43;27.13;;;5.00;99.90;;;;;;5074429;28;20036;-86
2022/01/15 07:05:49;;;;;;;151.07;30.13;;;5.10;99.90;;;;;;5075361;28;20028;-86
2022/01/15 07:20:28;;;;;;;184.02;31.75;;;5.10;99.90;;;;;;5074406;28;20047;-87
2022/01/15 07:26:35;;;;;;;172.82;32.28;;;5.10;99.90;;;;;;5074194;28;20020;-87
2022/01/15 07:32:31;;;;;;;142.57;29.17;;;5.10;99.90;;;;;;5074074;28;20485;-87
2022/01/15 07:42:36;;;;;;;147.65;30.70;;;5.10;99.90;;;;;;5073781;28;20040;-87
2022/01/15 07:52:42;;;;;;;143.02;29.58;;;5.00;99.90;;;;;;5072422;28;20025;-87
2022/01/15 07:58:48;;;;;;;182.40;33.20;;;5.00;99.90;;;;;;5074164;28;20027;-86
2022/01/15 08:05:05;;;;;;;174.93;31.10;;;4.90;99.90;;;;;;5073673;28;20063;-87
2022/01/15 08:30:31;;;;;;;232.27;34.45;;;5.00;99.90;;;;;;5053245;28;19915;-87
2022/01/15 08:36:49;;;;;;;279.85;37.63;;;5.00;99.90;;;;;;5053136;28;20020;-87
2022/01/15 08:39:15;;;;;;;263.70;34.50;;;5.00;99.90;;;;;;5035460;28;20040;-86
2022/01/15 08:41:47;;;;;;;181.23;29.52;;;5.00;99.90;;;;;;5053270;28;20032;-86
2022/01/15 08:44:24;;;;;;;186.43;32.13;;;5.00;99.90;;;;;;5036619;28;20021;-87
2022/01/15 08:47:05;;;;;;;;;;;;;;;;;;;;;
2022/01/15 08:52:55;;;;;;;169.73;30.63;;;5.00;99.90;;;;;;5054969;28;20040;-86
2022/01/15 08:58:49;;;;;;;252.43;33.88;;;5.00;99.90;;;;;;5056479;28;20040;-86
2022/01/15 09:01:18;;;;;;;158.23;29.70;;;5.00;99.90;;;;;;5039209;28;20033;-85
2022/01/15 09:03:46;;;;;;;255.13;33.28;;;5.10;99.90;;;;;;5038880;28;20059;-85
2022/01/15 09:06:12;;;;;;;221.65;34.13;;;5.10;99.90;;;;;;5055171;28;20025;-85
2022/01/15 09:08:42;;;;;;;152.00;29.30;;;5.00;99.90;;;;;;5055063;28;20025;-86
2022/01/15 09:11:08;;;;;;;207.80;32.03;;;5.10;99.90;;;;;;5056148;28;20036;-86
2022/01/15 09:13:36;;;;;;;231.75;32.40;;;5.10;99.90;;;;;;5056245;28;20017;-85
2022/01/15 09:16:06;;;;;;;198.68;31.23;;;5.10;99.90;;;;;;5055533;28;20064;-85
2022/01/15 09:18:35;;;;;;;167.18;29.17;;;5.10;99.90;;;;;;5039211;28;20057;-85
2022/01/15 09:21:02;;;;;;;180.63;28.67;;;5.10;99.90;;;;;;5039952;28;20092;-86
2022/01/15 09:23:27;;;;;;;142.07;27.70;;;5.10;99.90;;;;;;5056342;28;20029;-86
2022/01/15 09:25:53;;;;;;;157.40;27.90;;;5.10;99.90;;;;;;5055853;28;20382;-86
2022/01/15 09:31:19;;;;;;;140.98;24.38;;;5.00;99.90;;;;;;5040621;28;20090;-85
2022/01/15 09:33:49;;;;;;;168.60;26.65;;;4.90;99.90;;;;;;5038825;28;20518;-86
2022/01/15 09:36:15;;;;;;;156.50;27.05;;;4.90;99.90;;;;;;5022820;28;20074;-88
2022/01/15 09:38:41;;;;;;;163.00;30.27;;;4.90;99.90;;;;;;5038009;28;20017;-86
2022/01/15 09:41:58;;;;;;;;;;;;;;;;;;;;;
2022/01/15 09:51:54;;;;;;;212.75;31.98;;;5.00;99.90;;;;;;5055810;28;20052;-87
2022/01/15 09:54:30;;;;;;;131.02;27.88;;;5.00;99.90;;;;;;5055596;28;20025;-87
2022/01/15 09:56:56;;;;;;;148.85;29.88;;;5.00;99.90;;;;;;5022753;28;20029;-87
2022/01/15 09:59:21;;;;;;;155.38;28.95;;;5.10;99.90;;;;;;5037581;28;20033;-87
2022/01/15 10:01:47;;;;;;;179.63;30.13;;;5.10;99.90;;;;;;5020914;28;20041;-87
2022/01/15 10:04:13;;;;;;;164.02;29.83;;;5.00;99.90;;;;;;5021211;28;20025;-87
2022/01/15 10:07:15;;;;;;;153.77;28.52;;;5.00;99.90;;;;;;5021125;28;20033;-87
2022/01/15 10:12:56;;;;;;;99.90;27.17;;;5.00;99.90;;;;;;4982803;28;20093;-87
2022/01/15 10:15:22;;;;;;;150.48;29.05;;;5.10;99.90;;;;;;5037126;28;20057;-87
2022/01/15 10:17:53;;;;;;;122.22;27.90;;;5.00;99.90;;;;;;5037093;28;20025;-86
2022/01/15 10:20:23;;;;;;;213.45;33.35;;;5.00;99.90;;;;;;5036755;28;20025;-86
2022/01/15 10:22:51;;;;;;;160.40;30.58;;;5.00;99.90;;;;;;5047532;28;20062;-86
2022/01/15 10:25:21;;;;;;;205.60;34.55;;;5.00;99.90;;;;;;5073436;28;20032;-89
2022/01/15 10:27:52;;;;;;;192.80;34.10;;;5.10;99.90;;;;;;5074467;28;20035;-86
2022/01/15 10:30:25;;;;;;;146.77;31.10;;;5.10;99.90;;;;;;5075244;28;20108;-86
2022/01/15 10:32:58;;;;;;;160.07;30.65;;;5.10;99.90;;;;;;5074757;28;20017;-86
2022/01/15 10:38:47;;;;;;;163.80;26.67;;;5.00;99.90;;;;;;5036205;28;20087;-86
2022/01/15 10:41:33;;;;;;;115.38;23.15;;;5.00;99.90;;;;;;5073353;28;20036;-86
2022/01/15 10:44:47;;;;;;;180.10;26.40;;;5.00;99.90;;;;;;5073492;28;20031;-86
2022/01/15 10:50:39;;;;;;;109.68;22.45;;;4.80;99.90;;;;;;5074713;28;20111;-85
2022/01/15 10:53:11;;;;;;;129.43;24.05;;;4.80;99.90;;;;;;5056880;28;20031;-86
2022/01/15 10:55:39;;;;;;;108.05;22.80;;;4.80;99.90;;;;;;5074305;28;20071;-85
2022/01/15 10:58:14;;;;;;;86.32;20.88;;;4.80;99.90;;;;;;5074627;28;20050;-84
2022/01/15 11:00:46;;;;;;;164.15;27.25;;;4.80;99.90;;;;;;5073034;28;20043;-87
2022/01/15 11:03:19;;;;;;;113.65;25.67;;;4.80;99.90;;;;;;5073276;28;20110;-87
2022/01/15 11:05:49;;;;;;;96.82;23.60;;;4.80;99.90;;;;;;5073301;28;20128;-87
2022/01/15 11:08:27;;;;;;;107.00;22.73;;;4.70;99.90;;;;;;5073269;28;20054;-88
2022/01/15 11:11:05;;;;;;;114.50;24.60;;;4.70;99.90;;;;;;5074234;28;20060;-87
2022/01/15 11:13:36;;;;;;;104.80;23.95;;;4.80;99.90;;;;;;5073255;28;20021;-86
2022/01/15 11:16:14;;;;;;;102.80;23.90;;;4.80;99.90;;;;;;5072662;28;20370;-86
2022/01/15 11:18:49;;;;;;;108.88;24.17;;;4.70;99.90;;;;;;5073145;28;20021;-86
2022/01/15 11:21:20;;;;;;;74.55;22.08;;;4.70;99.90;;;;;;5074292;28;20066;-86
2022/01/15 11:23:49;;;;;;;102.40;23.05;;;4.70;99.90;;;;;;5064394;28;20048;-88
2022/01/15 11:26:24;;;;;;;116.63;24.73;;;4.70;99.90;;;;;;5073224;28;20127;-88
2022/01/15 11:28:50;;;;;;;141.25;26.85;;;4.70;99.90;;;;;;5073732;28;20016;-86
2022/01/15 11:31:23;;;;;;;86.10;21.83;;;4.70;99.90;;;;;;5072289;28;20036;-86
2022/01/15 11:33:56;;;;;;;97.53;25.00;;;4.60;99.90;;;;;;5073092;28;20081;-87
2022/01/15 11:43:18;;;;;;;;;;;4.60;99.90;;;;;;5032209;28;20068;-87
2022/01/15 11:45:46;;;;;;;81.70;20.35;;;4.50;99.90;;;;;;5072386;28;19995;-89
2022/01/15 11:48:24;;;;;;;145.90;25.40;;;4.60;99.90;;;;;;5055135;28;20082;-87
2022/01/15 11:51:14;;;;;;;106.85;25.67;;;4.60;99.90;;;;;;5072180;28;20469;-86
2022/01/15 11:53:59;;;;;;;111.60;25.17;;;4.60;99.90;;;;;;5072687;28;20023;-89
2022/01/15 11:56:26;;;;;;;88.22;23.60;;;4.70;99.90;;;;;;5072610;28;20104;-86
2022/01/15 12:02:27;;;;;;;112.53;27.05;;;4.70;99.90;;;;;;5050967;28;20086;-87
2022/01/15 12:04:53;;;;;;;71.53;22.63;;;4.70;99.90;;;;;;5034677;28;20056;-87
2022/01/15 12:07:21;;;;;;;79.43;24.23;;;4.70;99.90;;;;;;5034765;28;20049;-87
2022/01/15 12:09:56;;;;;;;88.53;24.92;;;4.70;99.90;;;;;;5034550;28;20522;-87
2022/01/15 12:12:29;;;;;;;70.28;23.15;;;4.70;99.90;;;;;;5034787;28;20192;-86
2022/01/15 12:14:59;;;;;;;82.15;23.55;;;4.60;99.90;;;;;;5034676;28;20025;-87
2022/01/15 12:17:44;;;;;;;95.80;25.30;;;4.60;99.90;;;;;;5051388;28;20029;-86
2022/01/15 12:23:32;;;;;;;98.35;25.85;;;4.50;99.90;;;;;;5051160;28;20155;-86
2022/01/15 12:25:58;;;;;;;108.72;28.80;;;4.60;99.90;;;;;;5034421;28;20040;-87
2022/01/15 12:28:27;;;;;;;100.30;29.55;;;4.60;99.90;;;;;;5054600;28;20052;-87
2022/01/15 12:30:57;;;;;;;92.10;26.38;;;4.60;99.90;;;;;;5038020;28;20033;-86
2022/01/15 12:33:51;;;;;;;104.55;26.65;;;4.50;99.90;;;;;;5054536;28;20039;-88
2022/01/15 12:49:58;;;;;;;112.25;27.10;;;4.40;99.90;;;;;;5075506;28;20085;-87
2022/01/15 13:06:05;;;;;;;63.92;23.45;;;4.20;99.90;;;;;;5076905;28;20393;-86
2022/01/15 13:08:34;;;;;;;67.05;22.90;;;4.20;99.90;;;;;;5041833;28;20124;-86
2022/01/15 13:11:13;;;;;;;60.95;22.80;;;4.20;99.90;;;;;;5076864;28;20028;-87
2022/01/15 13:14:04;;;;;;;50.47;20.40;;;4.10;99.90;;;;;;5014636;28;20026;-88
2022/01/15 13:20:48;;;;;;;72.47;23.65;;;3.90;99.90;;;;;;5015217;28;20070;-85
2022/01/15 13:23:30;;;;;;;;;;;;;;;;;;;;;
2022/01/15 13:26:40;;;;;;;80.35;23.52;;;4.00;99.90;;;;;;4975745;28;20567;-86
2022/01/15 13:32:29;;;;;;;77.57;21.40;;;4.00;99.90;;;;;;5034618;28;20057;-87
2022/01/15 13:35:13;;;;;;;56.20;20.77;;;3.90;99.90;;;;;;5017400;28;20119;-87
2022/01/15 13:37:52;;;;;;;55.95;23.27;;;3.90;99.90;;;;;;5016987;28;20103;-86
2022/01/15 13:40:30;;;;;;;58.60;21.85;;;3.90;99.90;;;;;;5017186;28;20075;-87
2022/01/15 13:42:56;;;;;;;58.67;22.85;;;3.90;99.90;;;;;;5017116;28;20120;-86
2022/01/15 13:45:23;;;;;;;74.97;24.65;;;3.90;99.90;;;;;;5000979;28;20461;-87
2022/01/15 13:47:52;;;;;;;92.95;26.42;;;3.90;99.90;;;;;;5017994;28;20064;-87
2022/01/15 13:56:56;;;;;;;83.40;26.75;;;4.00;99.90;;;;;;5076306;28;20039;-87
2022/01/15 14:02:35;;;;;;;80.20;26.42;;;4.00;99.90;;;;;;5075845;28;19973;-89
2022/01/15 14:05:22;;;;;;;75.18;25.98;;;4.00;99.90;;;;;;5074063;28;20059;-86
2022/01/15 14:07:49;;;;;;;67.15;25.00;;;4.00;99.90;;;;;;5074124;28;20131;-85
2022/01/15 14:10:25;;;;;;;57.58;23.45;;;4.00;99.90;;;;;;5075565;28;20071;-86
2022/01/15 14:13:29;;;;;;;66.63;24.92;;;3.90;99.90;;;;;;5076030;28;20021;-88
2022/01/15 14:15:54;;;;;;;47.20;20.92;;;3.90;99.90;;;;;;5048200;28;20064;-89
2022/01/15 14:18:30;;;;;;;48.22;22.52;;;3.80;99.90;;;;;;5058600;28;20029;-88
2022/01/15 14:23:57;;;;;;;;;;;;;;;;;;;;;
2022/01/15 14:27:08;;;;;;;48.22;20.48;;;3.80;99.90;;;;;;5076973;28;20084;-90
2022/01/15 14:30:21;;;;;;;59.28;28.58;;;3.80;99.90;;;;;;5035956;28;20040;-89
2022/01/15 14:32:50;;;;;;;51.78;22.45;;;3.70;99.90;;;;;;5073980;28;20121;-86
2022/01/15 14:35:16;;;;;;;66.57;24.42;;;3.70;99.90;;;;;;5041825;28;20039;-87
2022/01/15 14:37:48;;;;;;;52.95;22.92;;;3.70;99.90;;;;;;5074768;28;20020;-89
2022/01/15 14:40:32;;;;;;;;;;;3.70;99.90;;;;;;5075890;28;20505;-88
2022/01/15 14:42:57;;;;;;;64.30;26.23;;;3.70;99.90;;;;;;5074309;28;20014;-85
2022/01/15 15:08:49;;;;;;;58.30;23.42;;;3.60;99.90;;;;;;4974339;28;20516;-90
2022/01/15 15:11:38;;;;;;;;;;;;;;;;;;;;;
2022/01/15 15:14:27;;;;;;;60.72;25.05;;;3.70;99.90;;;;;;4980056;28;20044;-90
2022/01/15 15:20:00;;;;;;;52.67;24.52;;;3.70;99.90;;;;;;5066150;28;20047;-87
2022/01/15 15:22:59;;;;;;;;;;;;;;;;;;;;;
2022/01/15 15:25:28;;;;;;;57.72;25.05;;;3.70;99.90;;;;;;5072943;28;20055;-86
2022/01/15 15:28:21;;;;;;;64.78;28.17;;;3.70;99.90;;;;;;5072796;28;20078;-87
2022/01/15 15:30:58;;;;;;;65.00;29.73;;;3.70;99.90;;;;;;5072787;28;20136;-85
2022/01/15 15:33:24;;;;;;;70.10;29.33;;;3.80;99.90;;;;;;5056737;28;20048;-87
2022/01/15 15:35:55;;;;;;;68.10;29.65;;;3.80;99.90;;;;;;5073039;28;20446;-87
2022/01/15 15:39:02;;;;;;;61.35;26.88;;;3.80;99.90;;;;;;5072974;28;20032;-90
2022/01/15 15:42:09;;;;;;;54.53;24.85;;;3.80;99.90;;;;;;5073383;28;20089;-88
2022/01/15 15:44:37;;;;;;;52.97;24.90;;;3.70;99.90;;;;;;5059558;28;20064;-88
2022/01/15 15:50:22;;;;;;;54.33;25.30;;;3.80;99.90;;;;;;5066521;28;20030;-89
2022/01/15 15:53:22;;;;;;;;;;;;;;;;;;;;;
2022/01/15 15:59:10;;;;;;;;;;;;;;;;;;;;;
2022/01/15 16:01:47;;;;;;;58.33;25.48;;;3.70;99.90;;;;;;5073482;28;19912;-87
2022/01/15 16:04:31;;;;;;;;;;;;;;;;;;;;;
2022/01/15 16:07:43;;;;;;;63.83;27.80;;;3.70;99.90;;;;;;5056970;28;20041;-86
2022/01/15 16:10:38;;;;;;;63.45;27.13;;;3.80;99.90;;;;;;5071674;28;20021;-86
2022/01/15 16:13:44;;;;;;;;;;;;;;;;;;;;;
2022/01/15 16:16:55;;;;;;;81.47;29.42;;;3.70;99.90;;;;;;5072424;28;20489;-85
2022/01/15 16:19:30;;;;;;;67.85;27.27;;;3.70;99.90;;;;;;5071709;28;20021;-85
2022/01/15 16:25:34;;;;;;;59.53;26.67;;;3.70;99.90;;;;;;5029584;28;20059;-86
2022/01/15 16:28:13;;;;;;;66.50;28.13;;;3.70;99.90;;;;;;5052053;28;20040;-86
2022/01/15 16:30:41;;;;;;;58.65;25.13;;;3.70;99.90;;;;;;5072579;28;20024;-86
2022/01/15 16:36:15;;;;;;;65.97;27.13;;;3.60;99.90;;;;;;5058064;28;20078;-86
2022/01/15 16:38:44;;;;;;;67.63;29.05;;;3.60;99.90;;;;;;5071632;28;20029;-87
2022/01/15 16:41:35;;;;;;;68.80;28.48;;;3.60;99.90;;;;;;5071349;28;20040;-86
2022/01/15 16:44:04;;;;;;;68.13;27.75;;;3.60;99.90;;;;;;5063136;28;20104;-86
2022/01/15 16:47:07;;;;;;;73.10;27.55;;;3.60;99.90;;;;;;5071758;28;20107;-86
2022/01/15 16:53:06;;;;;;;65.20;27.63;;;3.60;99.90;;;;;;4990529;28;20395;-86
2022/01/15 16:55:47;;;;;;;65.85;27.67;;;3.60;99.90;;;;;;4998308;28;20563;-86
2022/01/15 16:58:19;;;;;;;73.50;29.67;;;3.60;99.90;;;;;;4999680;28;20025;-86
2022/01/15 17:00:57;;;;;;;69.95;28.42;;;3.60;99.90;;;;;;5065674;28;20044;-87
2022/01/15 17:03:35;;;;;;;;;;;;;;;;;;;;;
2022/01/15 17:06:10;;;;;;;70.88;28.00;;;3.60;99.90;;;;;;5072165;28;20040;-86
2022/01/15 17:08:45;;;;;;;80.20;29.00;;;3.60;99.90;;;;;;5072849;28;20028;-86
2022/01/15 17:11:29;;;;;;;58.28;26.02;;;3.70;99.90;;;;;;5072938;28;20027;-86
2022/01/15 17:14:07;;;;;;;;;;;;;;;;;;;;;
2022/01/15 17:17:14;;;;;;;62.40;27.05;;;3.60;99.90;;;;;;4982535;28;20038;-87
2022/01/15 17:23:48;;;;;;;66.97;27.00;;;3.60;99.90;;;;;;5076552;28;20023;-86
2022/01/15 17:26:13;;;;;;;74.05;30.27;;;3.60;99.90;;;;;;5074543;28;20486;-85
2022/01/15 17:29:34;;;;;;;85.00;30.95;;;3.60;99.90;;;;;;5075190;28;20155;-85
2022/01/15 17:35:40;;;;;;;64.05;26.63;;;3.70;99.90;;;;;;5034665;28;20060;-87
2022/01/15 17:41:45;;;;;;;63.38;27.08;;;3.70;99.90;;;;;;5076237;28;20087;-86
2022/01/15 17:44:13;;;;;;;74.05;30.00;;;3.70;99.90;;;;;;5042899;28;20115;-84
2022/01/15 17:46:39;;;;;;;75.75;29.15;;;3.70;99.90;;;;;;5076208;28;20024;-86
2022/01/15 18:02:48;;;;;;;69.35;30.38;;;3.60;99.90;;;;;;5076352;28;20074;-85
2022/01/15 18:05:34;;;;;;;63.13;28.30;;;3.50;99.90;;;;;;5058198;28;20043;-87
2022/01/15 18:08:03;;;;;;;70.05;28.42;;;3.50;99.90;;;;;;5057954;28;20031;-87
2022/01/15 18:14:00;;;;;;;64.53;27.10;;;3.50;99.90;;;;;;5039833;28;20078;-88
2022/01/15 18:16:26;;;;;;;79.70;31.97;;;3.50;99.90;;;;;;5057717;28;20025;-86
2022/01/15 18:18:56;;;;;;;74.63;30.23;;;3.50;99.90;;;;;;5057021;28;20267;-86
2022/01/15 18:21:22;;;;;;;76.18;29.33;;;3.60;99.90;;;;;;5057544;28;20123;-86
2022/01/15 18:31:33;;;;;;;72.93;29.13;;;3.50;99.90;;;;;;5075585;28;20086;-87
2022/01/15 18:33:59;;;;;;;65.43;26.50;;;3.50;99.90;;;;;;5057732;28;20437;-86
2022/01/15 18:46:35;;;;;;;75.30;28.63;;;3.40;99.90;;;;;;5012374;28;19909;-88
2022/01/15 18:49:04;;;;;;;58.13;26.15;;;3.40;99.90;;;;;;4996838;28;20077;-86
2022/01/15 18:51:35;;;;;;;69.30;27.98;;;3.40;99.90;;;;;;5050802;28;20072;-86
2022/01/15 18:54:23;;;;;;;56.55;25.80;;;3.40;99.90;;;;;;5056734;28;20032;-87
2022/01/15 18:56:54;;;;;;;69.25;27.42;;;3.40;99.90;;;;;;5056436;28;20066;-87
2022/01/15 18:59:20;;;;;;;62.25;27.27;;;3.50;99.90;;;;;;5056466;28;20112;-86
2022/01/15 19:01:58;;;;;;;68.35;28.95;;;3.50;99.90;;;;;;5056129;28;20541;-87
2022/01/15 19:04:38;;;;;;;59.83;25.55;;;3.50;99.90;;;;;;5056442;28;20037;-86
2022/01/15 19:07:37;;;;;;;;;;;;;;;;;;;;;
2022/01/15 19:10:29;;;;;;;60.00;25.63;;;3.50;99.90;;;;;;5069217;28;20398;-89
2022/01/15 19:13:21;;;;;;;69.75;26.17;;;3.60;99.90;;;;;;5056272;28;20031;-85
2022/01/15 19:22:43;;;;;;;68.55;28.98;;;3.60;99.90;;;;;;5074875;28;20132;-87
2022/01/15 19:25:16;;;;;;;77.78;28.85;;;3.60;99.90;;;;;;5041557;28;20075;-87
2022/01/15 19:32:13;;;;;;;64.78;27.35;;;3.50;99.90;;;;;;5073304;28;20064;-86
2022/01/15 19:35:06;;;;;;;66.45;27.70;;;3.50;99.90;;;;;;5041109;28;20469;-86
2022/01/15 19:41:19;;;;;;;60.15;26.70;;;3.40;99.90;;;;;;5074014;28;20562;-88
2022/01/15 19:50:40;;;;;;;;;;;3.40;99.90;;;;;;5023058;28;20043;-86
2022/01/15 19:53:19;;;;;;;82.63;37.00;;;3.40;99.90;;;;;;5039219;28;20384;-86
2022/01/15 19:55:56;;;;;;;73.03;29.80;;;3.30;99.90;;;;;;5057236;28;20359;-87
2022/01/15 19:58:42;;;;;;;;;;;;;;;;;;;;;
2022/01/15 20:01:18;;;;;;;;;;;;;;;;;;;;;
2022/01/15 20:04:09;;;;;;;69.03;29.17;;;3.30;99.90;;;;;;5074546;28;20021;-87
2022/01/15 20:07:31;;;;;;;;;;;;;;;;;;;;;
2022/01/15 20:10:00;;;;;;;71.20;28.98;;;3.20;99.90;;;;;;5074323;28;20016;-86
2022/01/15 20:12:38;;;;;;;68.97;28.75;;;3.30;99.90;;;;;;5055652;28;20538;-86
2022/01/15 20:15:05;;;;;;;66.47;27.85;;;3.30;99.90;;;;;;5056089;28;20086;-85
2022/01/15 20:17:36;;;;;;;54.42;26.40;;;3.30;99.90;;;;;;5055746;28;20024;-86
2022/01/15 20:23:28;;;;;;;;;;;;;;;;;;;;;
2022/01/15 20:26:00;;;;;;;57.45;27.65;;;3.20;99.90;;;;;;5067882;28;20039;-86
2022/01/15 20:28:46;;;;;;;72.13;33.50;;;3.20;99.90;;;;;;5056190;28;20016;-86
2022/01/15 20:31:15;;;;;;;90.03;41.00;;;3.20;99.90;;;;;;5054978;28;20053;-86
2022/01/15 20:34:09;;;;;;;89.45;36.72;;;3.20;99.90;;;;;;5055723;28;20025;-85
2022/01/15 20:36:34;;;;;;;77.43;35.83;;;3.30;99.90;;;;;;5072816;28;20047;-85
2022/01/15 20:39:06;;;;;;;68.78;36.47;;;3.30;99.90;;;;;;5054844;28;20466;-84
2022/01/15 20:41:45;;;;;;;68.07;29.73;;;3.30;99.90;;;;;;5072779;28;20427;-86
2022/01/15 20:48:15;;;;;;;249.77;116.75;;;3.30;99.90;;;;;;5019029;28;20034;-87
2022/01/15 20:51:12;;;;;;;72.85;36.90;;;3.20;99.90;;;;;;5095499;28;20031;-87
2022/01/15 21:07:15;;;;;;;63.22;27.40;;;3.20;99.90;;;;;;5031744;28;20505;-85
2022/01/15 21:09:41;;;;;;;70.18;27.65;;;3.20;99.90;;;;;;5078255;28;20042;-85
2022/01/15 21:12:22;;;;;;;57.85;27.33;;;3.30;99.90;;;;;;5060472;28;20025;-88
2022/01/15 21:14:51;;;;;;;68.07;29.23;;;3.20;99.90;;;;;;5060172;28;20208;-86
2022/01/15 21:17:56;;;;;;;;;;;;;;;;;;;;;
2022/01/15 21:20:30;;;;;;;64.22;27.08;;;3.30;99.90;;;;;;5061650;28;20108;-89
2022/01/15 21:33:10;;;;;;;;;;;;;;;;;;;;;
2022/01/15 21:36:01;;;;;;;60.72;25.95;;;3.20;99.90;;;;;;5094102;28;20071;-87